Wetterdaten: Woche 29.03.10 - 04.04.10 (KW13)
Datum Zeit Temperatur Luftfeuchte Luftdruck Niederschlag Windrichtung Wind
29.03.2010 00:00 8,0 C 91 % 1011,9 hPa 0,0 l/m W-SW 25,3 km/h (4 Bft)
29.03.2010 01:00 8,1 C 91 % 1011,6 hPa 0,0 l/m W-SW 25,4 km/h (4 Bft)
29.03.2010 02:00 8,1 C 91 % 1011,4 hPa 0,0 l/m W-SW 19,2 km/h (3 Bft)
29.03.2010 03:00 8,1 C 91 % 1011,1 hPa 0,0 l/m SW 22,2 km/h (4 Bft)
29.03.2010 04:00 8,2 C 90 % 1010,8 hPa 0,0 l/m W-SW 24,1 km/h (4 Bft)
29.03.2010 05:00 7,8 C 92 % 1010,4 hPa 0,0 l/m SW 13,4 km/h (3 Bft)
29.03.2010 06:00 7,2 C 94 % 1010,2 hPa 0,0 l/m SW 12,4 km/h (3 Bft)
29.03.2010 07:00 7,3 C 92 % 1010,1 hPa 0,0 l/m SW 14,5 km/h (3 Bft)
29.03.2010 08:00 7,5 C 92 % 1010,1 hPa 0,0 l/m SW 14,6 km/h (3 Bft)
29.03.2010 09:00 8,5 C 89 % 1010,1 hPa 0,0 l/m SW 13,8 km/h (3 Bft)
29.03.2010 10:00 9,6 C 86 % 1010,0 hPa 0,0 l/m SW 12,0 km/h (2 Bft)
29.03.2010 11:00 10,9 C 82 % 1009,6 hPa 0,0 l/m S-SW 14,9 km/h (3 Bft)
29.03.2010 12:00 12,0 C 75 % 1009,3 hPa 0,0 l/m SW 18,9 km/h (3 Bft)
29.03.2010 13:00 12,9 C 70 % 1008,6 hPa 0,0 l/m W-SW 18,2 km/h (3 Bft)
29.03.2010 14:00 13,9 C 65 % 1007,9 hPa 0,0 l/m SW 17,3 km/h (3 Bft)
29.03.2010 15:00 15,2 C 58 % 1006,8 hPa 0,0 l/m W-NW 14,0 km/h (3 Bft)
29.03.2010 16:00 15,7 C 52 % 1005,9 hPa 0,0 l/m W-SW 12,0 km/h (2 Bft)
29.03.2010 17:00 15,1 C 53 % 1005,3 hPa 0,0 l/m SW 11,8 km/h (2 Bft)
29.03.2010 18:00 14,8 C 54 % 1004,7 hPa 0,0 l/m S-SO 7,0 km/h (2 Bft)
29.03.2010 19:00 13,3 C 61 % 1004,1 hPa 0,0 l/m N 2,5 km/h (1 Bft)
29.03.2010 20:00 10,5 C 75 % 1003,5 hPa 0,0 l/m N 0,5 km/h (0 Bft)
29.03.2010 21:00 9,2 C 80 % 1002,9 hPa 0,0 l/m N 0,4 km/h (0 Bft)
29.03.2010 22:00 8,8 C 82 % 1002,5 hPa 0,0 l/m N 1,9 km/h (1 Bft)
29.03.2010 23:00 8,4 C 85 % 1002,1 hPa 0,0 l/m S-SO 1,6 km/h (1 Bft)
30.03.2010 00:00 8,1 C 86 % 1001,8 hPa 0,0 l/m N 0,3 km/h (0 Bft)
30.03.2010 01:00 8,2 C 87 % 1001,2 hPa 0,0 l/m N 1,2 km/h (1 Bft)
30.03.2010 02:00 7,7 C 88 % 1000,4 hPa 0,0 l/m N 0,0 km/h (0 Bft)
30.03.2010 03:00 6,8 C 91 % 999,7 hPa 0,0 l/m S-SO 0,4 km/h (0 Bft)
30.03.2010 04:00 6,2 C 93 % 998,8 hPa 0,0 l/m N-NW 5,2 km/h (1 Bft)
30.03.2010 05:00 6,3 C 93 % 998,5 hPa 0,0 l/m N-NW 6,4 km/h (2 Bft)
30.03.2010 06:00 5,5 C 93 % 997,9 hPa 0,0 l/m N-NW 3,2 km/h (1 Bft)
30.03.2010 07:00 4,7 C 95 % 997,5 hPa 0,0 l/m N 3,1 km/h (1 Bft)
30.03.2010 08:00 6,0 C 96 % 997,0 hPa 0,0 l/m N-NW 3,7 km/h (1 Bft)
30.03.2010 09:00 9,3 C 83 % 996,3 hPa 0,0 l/m N-NW 4,4 km/h (1 Bft)
30.03.2010 10:00 12,9 C 62 % 995,6 hPa 0,0 l/m O-SO 6,0 km/h (2 Bft)
30.03.2010 11:00 16,0 C 47 % 995,0 hPa 0,0 l/m SW 17,7 km/h (3 Bft)
30.03.2010 12:00 17,5 C 37 % 994,1 hPa 0,0 l/m SW 31,8 km/h (5 Bft)
30.03.2010 13:00 16,2 C 37 % 993,5 hPa 0,0 l/m S-SW 31,1 km/h (5 Bft)
30.03.2010 14:00 16,6 C 35 % 992,7 hPa 0,0 l/m SW 28,2 km/h (4 Bft)
30.03.2010 15:00 18,4 C 30 % 992,0 hPa 0,0 l/m W 29,1 km/h (5 Bft)
30.03.2010 16:00 17,3 C 31 % 991,8 hPa 0,0 l/m W-SW 17,4 km/h (3 Bft)
30.03.2010 17:00 16,1 C 40 % 992,5 hPa 0,0 l/m W 24,7 km/h (4 Bft)
30.03.2010 18:00 12,3 C 60 % 994,4 hPa 0,0 l/m W-SW 42,0 km/h (6 Bft)
30.03.2010 19:00 9,9 C 67 % 996,6 hPa 0,0 l/m SW 31,1 km/h (5 Bft)
30.03.2010 20:00 7,9 C 81 % 998,2 hPa 0,0 l/m SW 23,5 km/h (4 Bft)
30.03.2010 21:00 7,1 C 81 % 999,2 hPa 0,0 l/m W-SW 19,2 km/h (3 Bft)
30.03.2010 22:00 7,0 C 77 % 999,8 hPa 0,0 l/m W-SW 20,2 km/h (4 Bft)
30.03.2010 23:00 6,8 C 81 % 1000,5 hPa 0,0 l/m W-SW 18,1 km/h (3 Bft)
31.03.2010 00:00 7,1 C 78 % 1001,2 hPa 0,0 l/m W-SW 26,0 km/h (4 Bft)
31.03.2010 01:00 6,3 C 72 % 1002,4 hPa 0,0 l/m W 28,2 km/h (4 Bft)
31.03.2010 02:00 5,3 C 72 % 1003,4 hPa 0,0 l/m W 14,8 km/h (3 Bft)
31.03.2010 03:00 4,6 C 78 % 1003,5 hPa 0,0 l/m W-SW 14,2 km/h (3 Bft)
31.03.2010 04:00 4,1 C 80 % 1003,7 hPa 0,0 l/m SW 11,7 km/h (2 Bft)
31.03.2010 05:00 4,0 C 84 % 1004,1 hPa 0,0 l/m SW 13,4 km/h (3 Bft)
31.03.2010 06:00 3,3 C 88 % 1004,3 hPa 0,0 l/m SW 12,1 km/h (2 Bft)
31.03.2010 07:00 3,1 C 89 % 1004,3 hPa 0,0 l/m SW 11,8 km/h (2 Bft)
31.03.2010 08:00 4,3 C 84 % 1004,4 hPa 0,0 l/m SW 12,8 km/h (3 Bft)
31.03.2010 09:00 5,9 C 72 % 1004,2 hPa 0,0 l/m W-SW 16,9 km/h (3 Bft)
31.03.2010 10:00 7,6 C 60 % 1004,1 hPa 0,0 l/m W-SW 27,8 km/h (4 Bft)
31.03.2010 11:00 9,0 C 56 % 1004,1 hPa 0,0 l/m W 26,0 km/h (4 Bft)
31.03.2010 12:00 9,0 C 55 % 1003,9 hPa 0,0 l/m W 24,9 km/h (4 Bft)
31.03.2010 13:00 9,6 C 55 % 1003,7 hPa 0,0 l/m W-SW 28,6 km/h (4 Bft)
31.03.2010 14:00 9,1 C 59 % 1003,9 hPa 0,0 l/m W 32,6 km/h (5 Bft)
31.03.2010 15:00 9,0 C 64 % 1004,0 hPa 0,0 l/m W 24,5 km/h (4 Bft)
31.03.2010 16:00 7,8 C 69 % 1004,2 hPa 0,6 l/m W 23,7 km/h (4 Bft)
31.03.2010 17:00 7,8 C 74 % 1004,0 hPa 0,0 l/m W-SW 21,6 km/h (4 Bft)
31.03.2010 18:00 8,2 C 63 % 1004,2 hPa 0,0 l/m W-SW 24,0 km/h (4 Bft)
31.03.2010 19:00 6,4 C 72 % 1005,2 hPa 0,0 l/m W 17,6 km/h (3 Bft)
31.03.2010 20:00 5,2 C 78 % 1006,1 hPa 0,6 l/m W-SW 16,3 km/h (3 Bft)
31.03.2010 21:00 5,0 C 76 % 1006,7 hPa 0,0 l/m SW 15,0 km/h (3 Bft)
31.03.2010 22:00 4,0 C 77 % 1006,8 hPa 0,0 l/m W-SW 6,3 km/h (2 Bft)
31.03.2010 23:00 3,3 C 81 % 1007,0 hPa 0,0 l/m W-SW 8,4 km/h (2 Bft)
01.04.2010 00:00 2,2 C 84 % 1006,7 hPa 0,0 l/m SW 0,9 km/h (0 Bft)
01.04.2010 01:00 1,5 C 88 % 1006,7 hPa 0,0 l/m SW 2,8 km/h (1 Bft)
01.04.2010 02:00 1,3 C 89 % 1006,4 hPa 0,0 l/m N 1,2 km/h (1 Bft)
01.04.2010 03:00 1,3 C 90 % 1006,4 hPa 0,0 l/m N 1,5 km/h (1 Bft)
01.04.2010 04:00 2,4 C 89 % 1007,2 hPa 0,0 l/m W-NW 5,9 km/h (2 Bft)
01.04.2010 05:00 2,7 C 90 % 1008,4 hPa 0,4 l/m N-NW 12,2 km/h (2 Bft)
01.04.2010 06:00 1,5 C 93 % 1009,6 hPa 0,4 l/m W-NW 5,9 km/h (2 Bft)
01.04.2010 07:00 1,3 C 94 % 1010,5 hPa 0,4 l/m SW 5,3 km/h (1 Bft)
01.04.2010 08:00 1,3 C 95 % 1011,8 hPa 0,0 l/m SW 8,7 km/h (2 Bft)
01.04.2010 09:00 1,1 C 96 % 1012,4 hPa 0,2 l/m S-SW 14,1 km/h (3 Bft)
01.04.2010 10:00 1,2 C 96 % 1012,8 hPa 0,0 l/m SW 18,6 km/h (3 Bft)
01.04.2010 11:00 1,5 C 94 % 1013,6 hPa 0,0 l/m SW 17,0 km/h (3 Bft)
01.04.2010 12:00 1,7 C 93 % 1014,4 hPa 0,0 l/m SW 18,0 km/h (3 Bft)
01.04.2010 13:00 2,1 C 93 % 1014,8 hPa 0,0 l/m SW 18,9 km/h (3 Bft)
01.04.2010 14:00 2,5 C 92 % 1015,4 hPa 0,0 l/m SW 16,8 km/h (3 Bft)
01.04.2010 15:00 3,1 C 90 % 1015,9 hPa 0,0 l/m SW 17,2 km/h (3 Bft)
01.04.2010 16:00 3,4 C 88 % 1016,0 hPa 0,0 l/m SW 17,0 km/h (3 Bft)
01.04.2010 17:00 3,9 C 85 % 1016,0 hPa 0,0 l/m S-SW 20,2 km/h (4 Bft)
01.04.2010 18:00 3,9 C 83 % 1016,4 hPa 0,0 l/m SW 21,4 km/h (4 Bft)
01.04.2010 19:00 3,3 C 83 % 1016,7 hPa 0,0 l/m S-SW 13,2 km/h (3 Bft)
01.04.2010 20:00 2,5 C 85 % 1017,6 hPa 0,0 l/m W 7,2 km/h (2 Bft)
01.04.2010 21:00 2,1 C 84 % 1018,1 hPa 0,0 l/m W 6,8 km/h (2 Bft)
01.04.2010 22:00 1,2 C 86 % 1018,5 hPa 0,0 l/m W-NW 2,5 km/h (1 Bft)
01.04.2010 23:00 0,2 C 91 % 1018,9 hPa 0,0 l/m N 0,5 km/h (0 Bft)
02.04.2010 00:00 -0,4 C 93 % 1019,2 hPa 0,0 l/m W-SW 2,9 km/h (1 Bft)
02.04.2010 01:00 -0,9 C 94 % 1019,2 hPa 0,0 l/m N 1,6 km/h (1 Bft)
02.04.2010 02:00 -1,4 C 95 % 1019,0 hPa 0,0 l/m N 0,3 km/h (0 Bft)
02.04.2010 03:00 -1,7 C 95 % 1018,7 hPa 0,0 l/m N 0,7 km/h (0 Bft)
02.04.2010 04:00 -2,0 C 95 % 1018,4 hPa 0,0 l/m N 0,1 km/h (0 Bft)
02.04.2010 05:00 -2,7 C 95 % 1018,3 hPa 0,0 l/m N 0,0 km/h (0 Bft)
02.04.2010 06:00 -3,1 C 95 % 1018,4 hPa 0,0 l/m N 0,0 km/h (0 Bft)
02.04.2010 07:00 -3,0 C 96 % 1018,7 hPa 0,0 l/m N 0,3 km/h (0 Bft)
02.04.2010 08:00 -1,2 C 94 % 1018,7 hPa 0,2 l/m N 0,4 km/h (0 Bft)
02.04.2010 09:00 0,5 C 85 % 1018,6 hPa 0,0 l/m SW 3,3 km/h (1 Bft)
02.04.2010 10:00 2,5 C 72 % 1018,6 hPa 0,0 l/m S-SW 7,9 km/h (2 Bft)
02.04.2010 11:00 4,9 C 61 % 1018,5 hPa 0,0 l/m S-SW 12,0 km/h (2 Bft)
02.04.2010 12:00 6,6 C 55 % 1017,9 hPa 0,0 l/m W-SW 10,3 km/h (2 Bft)
02.04.2010 13:00 7,9 C 48 % 1017,2 hPa 0,0 l/m SW 15,8 km/h (3 Bft)
02.04.2010 14:00 8,4 C 46 % 1016,5 hPa 0,0 l/m SW 14,5 km/h (3 Bft)
02.04.2010 15:00 9,1 C 45 % 1015,8 hPa 0,0 l/m SW 14,5 km/h (3 Bft)
02.04.2010 16:00 9,6 C 42 % 1015,2 hPa 0,0 l/m SW 16,4 km/h (3 Bft)
02.04.2010 17:00 9,6 C 40 % 1014,7 hPa 0,0 l/m W-SW 15,4 km/h (3 Bft)
02.04.2010 18:00 9,0 C 43 % 1014,4 hPa 0,0 l/m W-SW 14,0 km/h (3 Bft)
02.04.2010 19:00 7,5 C 50 % 1014,5 hPa 0,0 l/m SW 6,0 km/h (2 Bft)
02.04.2010 20:00 4,8 C 63 % 1014,3 hPa 0,0 l/m N 0,0 km/h (0 Bft)
02.04.2010 21:00 3,2 C 73 % 1014,3 hPa 0,0 l/m N 0,0 km/h (0 Bft)
02.04.2010 22:00 2,4 C 75 % 1014,3 hPa 0,0 l/m N 0,0 km/h (0 Bft)
02.04.2010 23:00 2,4 C 77 % 1014,1 hPa 0,0 l/m N 0,5 km/h (0 Bft)
03.04.2010 00:00 2,6 C 72 % 1013,8 hPa 0,0 l/m SW 2,7 km/h (1 Bft)
03.04.2010 01:00 2,6 C 72 % 1013,8 hPa 0,0 l/m SW 2,9 km/h (1 Bft)
03.04.2010 02:00 3,5 C 71 % 1014,5 hPa 0,2 l/m S-SW 12,8 km/h (3 Bft)
03.04.2010 03:00 3,1 C 87 % 1014,9 hPa 0,4 l/m SW 8,4 km/h (2 Bft)
03.04.2010 04:00 3,5 C 90 % 1014,5 hPa 0,0 l/m SW 8,7 km/h (2 Bft)
03.04.2010 05:00 3,7 C 91 % 1014,3 hPa 0,2 l/m W-SW 5,1 km/h (1 Bft)
03.04.2010 06:00 2,5 C 93 % 1014,2 hPa 0,0 l/m N 0,1 km/h (0 Bft)
03.04.2010 07:00 1,8 C 96 % 1014,1 hPa 0,0 l/m N 0,1 km/h (0 Bft)
03.04.2010 08:00 3,7 C 94 % 1014,1 hPa 0,0 l/m S-SO 3,1 km/h (1 Bft)
03.04.2010 09:00 5,2 C 88 % 1014,0 hPa 0,0 l/m S 4,7 km/h (1 Bft)
03.04.2010 10:00 8,5 C 71 % 1013,5 hPa 0,0 l/m SW 12,3 km/h (3 Bft)
03.04.2010 11:00 10,3 C 61 % 1013,2 hPa 0,0 l/m S 12,0 km/h (2 Bft)
03.04.2010 12:00 12,1 C 50 % 1012,6 hPa 0,0 l/m SW 14,5 km/h (3 Bft)
03.04.2010 13:00 12,9 C 41 % 1012,1 hPa 0,0 l/m S-SW 15,6 km/h (3 Bft)
03.04.2010 14:00 13,4 C 36 % 1011,5 hPa 0,0 l/m SW 9,9 km/h (2 Bft)
03.04.2010 15:00 14,1 C 35 % 1010,6 hPa 0,0 l/m S 12,5 km/h (3 Bft)
03.04.2010 16:00 14,2 C 35 % 1009,7 hPa 0,0 l/m S-SW 22,5 km/h (4 Bft)
03.04.2010 17:00 13,8 C 35 % 1009,1 hPa 0,0 l/m S-SW 20,5 km/h (4 Bft)
03.04.2010 18:00 13,3 C 38 % 1008,9 hPa 0,0 l/m SW 15,7 km/h (3 Bft)
03.04.2010 19:00 12,5 C 40 % 1009,0 hPa 0,0 l/m SW 14,5 km/h (3 Bft)
03.04.2010 20:00 11,0 C 47 % 1009,1 hPa 0,0 l/m SW 6,1 km/h (2 Bft)
03.04.2010 21:00 10,1 C 52 % 1009,3 hPa 0,0 l/m W-SW 4,8 km/h (1 Bft)
03.04.2010 22:00 8,9 C 59 % 1008,8 hPa 0,0 l/m SO 4,0 km/h (1 Bft)
03.04.2010 23:00 7,3 C 66 % 1008,2 hPa 0,0 l/m SO 3,1 km/h (1 Bft)
04.04.2010 00:00 7,3 C 65 % 1008,5 hPa 0,0 l/m S-SW 4,3 km/h (1 Bft)
04.04.2010 01:00 8,3 C 64 % 1009,1 hPa 0,0 l/m N-NW 10,1 km/h (2 Bft)
04.04.2010 02:00 7,9 C 72 % 1010,3 hPa 0,0 l/m W-NW 16,4 km/h (3 Bft)
04.04.2010 03:00 7,1 C 78 % 1011,0 hPa 0,4 l/m W 17,6 km/h (3 Bft)
04.04.2010 04:00 6,0 C 88 % 1011,7 hPa 1,0 l/m W-SW 15,2 km/h (3 Bft)
04.04.2010 05:00 5,1 C 91 % 1011,8 hPa 0,4 l/m SW 16,6 km/h (3 Bft)
04.04.2010 06:00 4,5 C 94 % 1011,9 hPa 0,0 l/m SW 18,8 km/h (3 Bft)
04.04.2010 07:00 4,5 C 95 % 1012,1 hPa 0,0 l/m S-SW 16,6 km/h (3 Bft)
04.04.2010 08:00 5,2 C 91 % 1012,5 hPa 0,0 l/m SW 17,4 km/h (3 Bft)
04.04.2010 09:00 5,3 C 90 % 1012,6 hPa 0,2 l/m SW 20,0 km/h (4 Bft)
04.04.2010 10:00 5,7 C 89 % 1012,9 hPa 0,0 l/m SW 20,6 km/h (4 Bft)
04.04.2010 11:00 7,1 C 86 % 1013,0 hPa 0,0 l/m SW 21,3 km/h (4 Bft)
04.04.2010 12:00 8,3 C 79 % 1013,2 hPa 0,0 l/m W-SW 20,2 km/h (4 Bft)
04.04.2010 13:00 9,0 C 70 % 1013,2 hPa 0,0 l/m W-SW 22,0 km/h (4 Bft)
04.04.2010 14:00 9,1 C 67 % 1013,2 hPa 0,0 l/m W-SW 18,0 km/h (3 Bft)
04.04.2010 15:00 8,3 C 76 % 1013,4 hPa 1,8 l/m W 16,8 km/h (3 Bft)
04.04.2010 16:00 8,5 C 78 % 1013,5 hPa 0,2 l/m W 16,4 km/h (3 Bft)
04.04.2010 17:00 7,7 C 73 % 1014,2 hPa 0,0 l/m W-SW 21,3 km/h (4 Bft)
04.04.2010 18:00 7,4 C 80 % 1014,5 hPa 0,0 l/m W-SW 13,6 km/h (3 Bft)
04.04.2010 19:00 7,3 C 78 % 1015,0 hPa 0,0 l/m W 12,3 km/h (3 Bft)
04.04.2010 20:00 6,8 C 79 % 1015,8 hPa 0,0 l/m W-SW 10,1 km/h (2 Bft)
04.04.2010 21:00 6,3 C 80 % 1017,2 hPa 0,0 l/m W-SW 8,6 km/h (2 Bft)
04.04.2010 22:00 6,3 C 77 % 1018,2 hPa 0,0 l/m W-SW 8,9 km/h (2 Bft)
04.04.2010 23:00 5,5 C 76 % 1018,8 hPa 0,0 l/m W 5,7 km/h (1 Bft)
Min-Datum _ 02.04.10 30.03.10 30.03.10 - - 29.03.10
_ Min-Zeit 07:05 15:45 16:40 - - 19:45
Minimum _ -3,3 C 28 % 991,7 hPa - - 0,0 km/h (0 Bft)
Max-Datum _ 30.03.10 30.03.10 02.04.10 04.04.10 - 30.03.10
_ Max-Zeit 15:15 08:05 01:25 15:25 - 18:30
Maximum _ 18,7 C 97 % 1019,3 hPa 1,8 l/m - 57,9 km/h
W-SW (7 Bft)
Durchschnitt _ 6,7 C 75 % 1009,2 hPa #7,6 l/m SW 12,6 km/h (3 Bft)